JEI717 EGGW-EHAM
Flight info
| Callsign | JEI717 |
|---|---|
| Flight time | 0h 44m |
| Altitude | 29000 |
| Route | MATCH Q295 BRAIN M197 REDFA |
| Aircraft | LJ35/M-SFGJRW/S |
Departure
| Time | 2026-05-07 16:20 |
|---|---|
| Airport | London Luton Airport (EGGW) |
Arrival
| Time | 2026-05-07 17:05 |
|---|---|
| Airport | Amsterdam Airport Schiphol (EHAM) |
| Time | Latitude | Longitude | Altitude | Speed | Heading |
|---|---|---|---|---|---|
| 2026-05-07 15:43 | 51.87801 | -0.38040 | 518 ft | 0 kts | 135° |
| 2026-05-07 16:14 | 51.87801 | -0.38039 | 518 ft | 0 kts | 135° |
| 2026-05-07 16:14 | 51.87792 | -0.38016 | 518 ft | 11 kts | 106° |
| 2026-05-07 16:14 | 51.87761 | -0.37783 | 518 ft | 27 kts | 114° |
| 2026-05-07 16:14 | 51.87669 | -0.37501 | 516 ft | 28 kts | 138° |
| 2026-05-07 16:15 | 51.87584 | -0.37381 | 516 ft | 21 kts | 104° |
| 2026-05-07 16:15 | 51.87589 | -0.37343 | 516 ft | 11 kts | 265° |
| 2026-05-07 16:15 | 51.87506 | -0.37506 | 516 ft | 17 kts | 224° |
| 2026-05-07 16:15 | 51.87468 | -0.37569 | 516 ft | 0 kts | 227° |
| 2026-05-07 16:17 | 51.87465 | -0.37575 | 516 ft | 4 kts | 227° |
| 2026-05-07 16:17 | 51.87412 | -0.37667 | 515 ft | 18 kts | 222° |
| 2026-05-07 16:17 | 51.87326 | -0.37634 | 515 ft | 10 kts | 72° |
| 2026-05-07 16:18 | 51.87332 | -0.37601 | 515 ft | 0 kts | 76° |
| 2026-05-07 16:19 | 51.87405 | -0.37174 | 515 ft | 98 kts | 74° |
| 2026-05-07 16:20 | 51.87666 | -0.35624 | 1092 ft | 158 kts | 77° |
| 2026-05-07 16:20 | 51.87975 | -0.33855 | 2663 ft | 177 kts | 73° |
| 2026-05-07 16:20 | 51.88375 | -0.31623 | 3485 ft | 234 kts | 74° |
| 2026-05-07 16:20 | 51.88842 | -0.28877 | 4283 ft | 279 kts | 75° |
| 2026-05-07 16:21 | 51.89392 | -0.25641 | 5107 ft | 319 kts | 75° |
| 2026-05-07 16:21 | 51.89679 | -0.22067 | 5884 ft | 322 kts | 94° |
| 2026-05-07 16:21 | 51.89086 | -0.18611 | 6669 ft | 318 kts | 118° |
| 2026-05-07 16:21 | 51.87701 | -0.15896 | 7407 ft | 314 kts | 143° |
| 2026-05-07 16:22 | 51.85763 | -0.14352 | 8153 ft | 310 kts | 167° |
| 2026-05-07 16:22 | 51.83623 | -0.14150 | 8916 ft | 308 kts | 183° |
| 2026-05-07 16:22 | 51.81491 | -0.14201 | 9723 ft | 307 kts | 179° |
| 2026-05-07 16:22 | 51.79382 | -0.13844 | 10436 ft | 306 kts | 166° |
| 2026-05-07 16:23 | 51.77507 | -0.12310 | 11132 ft | 308 kts | 143° |
| 2026-05-07 16:23 | 51.76114 | -0.09647 | 11895 ft | 307 kts | 120° |
| 2026-05-07 16:23 | 51.75468 | -0.06381 | 12604 ft | 319 kts | 94° |
| 2026-05-07 16:23 | 51.75596 | -0.02838 | 14440 ft | 318 kts | 84° |
| 2026-05-07 16:24 | 51.75891 | 0.00756 | 15818 ft | 330 kts | 82° |
| 2026-05-07 16:24 | 51.76245 | 0.04457 | 17263 ft | 338 kts | 82° |
| 2026-05-07 16:24 | 51.76571 | 0.08269 | 18627 ft | 347 kts | 83° |
| 2026-05-07 16:24 | 51.76870 | 0.12199 | 19712 ft | 360 kts | 84° |
| 2026-05-07 16:25 | 51.77176 | 0.16334 | 20443 ft | 383 kts | 83° |
| 2026-05-07 16:25 | 51.77564 | 0.20634 | 21602 ft | 387 kts | 82° |
| 2026-05-07 16:25 | 51.77945 | 0.24991 | 22679 ft | 397 kts | 83° |
| 2026-05-07 16:25 | 51.78284 | 0.29399 | 23725 ft | 404 kts | 83° |
| 2026-05-07 16:26 | 51.78633 | 0.33938 | 24602 ft | 410 kts | 83° |
| 2026-05-07 16:26 | 51.79009 | 0.38531 | 25466 ft | 415 kts | 83° |
| 2026-05-07 16:26 | 51.79387 | 0.43165 | 26276 ft | 420 kts | 83° |
| 2026-05-07 16:26 | 51.79758 | 0.47875 | 27060 ft | 425 kts | 83° |
| 2026-05-07 16:27 | 51.80128 | 0.52635 | 27806 ft | 429 kts | 83° |
| 2026-05-07 16:27 | 51.80507 | 0.57447 | 28502 ft | 434 kts | 83° |
| 2026-05-07 16:27 | 51.80887 | 0.62340 | 28962 ft | 443 kts | 83° |
| 2026-05-07 16:27 | 51.81464 | 0.67283 | 28866 ft | 461 kts | 73° |
| 2026-05-07 16:28 | 51.82362 | 0.72368 | 29097 ft | 471 kts | 76° |
| 2026-05-07 16:28 | 51.83814 | 0.82815 | 29084 ft | 484 kts | 73° |
| 2026-05-07 16:29 | 51.85820 | 0.93245 | 29088 ft | 486 kts | 74° |
| 2026-05-07 16:29 | 51.87639 | 1.03659 | 29085 ft | 469 kts | 73° |
| 2026-05-07 16:30 | 51.89474 | 1.13585 | 29084 ft | 453 kts | 74° |
| 2026-05-07 16:30 | 51.91175 | 1.23193 | 29074 ft | 442 kts | 74° |
| 2026-05-07 16:31 | 51.92882 | 1.32680 | 29072 ft | 435 kts | 74° |
| 2026-05-07 16:31 | 51.94543 | 1.42056 | 29076 ft | 431 kts | 74° |
| 2026-05-07 16:32 | 51.96190 | 1.51363 | 29076 ft | 428 kts | 74° |
| 2026-05-07 16:32 | 51.97806 | 1.60555 | 29075 ft | 426 kts | 74° |
| 2026-05-07 16:33 | 51.99393 | 1.69785 | 29079 ft | 424 kts | 76° |
| 2026-05-07 16:33 | 52.00837 | 1.79072 | 29079 ft | 424 kts | 75° |
| 2026-05-07 16:34 | 52.02281 | 1.88315 | 29082 ft | 423 kts | 76° |
| 2026-05-07 16:34 | 52.03698 | 1.97531 | 29077 ft | 423 kts | 76° |
| 2026-05-07 16:35 | 52.05124 | 2.06798 | 29080 ft | 423 kts | 76° |
| 2026-05-07 16:35 | 52.06534 | 2.16058 | 29080 ft | 422 kts | 76° |
| 2026-05-07 16:36 | 52.07943 | 2.25332 | 29085 ft | 422 kts | 76° |
| 2026-05-07 16:36 | 52.09340 | 2.34602 | 29086 ft | 422 kts | 76° |
| 2026-05-07 16:37 | 52.10723 | 2.43817 | 29080 ft | 422 kts | 77° |
| 2026-05-07 16:37 | 52.12865 | 2.52675 | 29088 ft | 422 kts | 59° |
| 2026-05-07 16:38 | 52.15865 | 2.60899 | 29092 ft | 423 kts | 59° |
| 2026-05-07 16:38 | 52.18842 | 2.69161 | 29094 ft | 423 kts | 59° |
| 2026-05-07 16:39 | 52.21821 | 2.77413 | 29098 ft | 423 kts | 59° |
| 2026-05-07 16:39 | 52.24777 | 2.85652 | 29100 ft | 423 kts | 59° |
| 2026-05-07 16:40 | 52.27765 | 2.93993 | 29101 ft | 434 kts | 59° |
| 2026-05-07 16:40 | 52.29313 | 2.98331 | 29106 ft | 451 kts | 59° |
| 2026-05-07 16:40 | 52.30915 | 3.02826 | 29110 ft | 462 kts | 59° |
| 2026-05-07 16:41 | 52.34156 | 3.11943 | 29104 ft | 462 kts | 60° |
| 2026-05-07 16:41 | 52.37328 | 3.20899 | 29105 ft | 455 kts | 60° |
| 2026-05-07 16:42 | 52.40485 | 3.29843 | 29108 ft | 451 kts | 60° |
| 2026-05-07 16:42 | 52.43608 | 3.38733 | 29103 ft | 449 kts | 61° |
| 2026-05-07 16:43 | 52.45691 | 3.48284 | 29091 ft | 446 kts | 78° |
| 2026-05-07 16:43 | 52.47112 | 3.58188 | 29091 ft | 445 kts | 77° |
| 2026-05-07 16:44 | 52.48583 | 3.67767 | 28842 ft | 421 kts | 70° |
| 2026-05-07 16:44 | 52.50222 | 3.71725 | 27727 ft | 425 kts | 41° |
| 2026-05-07 16:44 | 52.52279 | 3.75191 | 26796 ft | 427 kts | 53° |
| 2026-05-07 16:44 | 52.53794 | 3.79403 | 25910 ft | 427 kts | 60° |
| 2026-05-07 16:45 | 52.55160 | 3.83702 | 25030 ft | 426 kts | 69° |
| 2026-05-07 16:45 | 52.55783 | 3.88426 | 24184 ft | 424 kts | 87° |
| 2026-05-07 16:45 | 52.55546 | 3.93212 | 23306 ft | 420 kts | 103° |
| 2026-05-07 16:45 | 52.54591 | 3.97646 | 23102 ft | 400 kts | 116° |
| 2026-05-07 16:46 | 52.53402 | 4.01650 | 23095 ft | 380 kts | 119° |
| 2026-05-07 16:46 | 52.52233 | 4.05357 | 23089 ft | 365 kts | 118° |
| 2026-05-07 16:46 | 52.51194 | 4.09093 | 23084 ft | 352 kts | 115° |
| 2026-05-07 16:46 | 52.50279 | 4.12757 | 23081 ft | 341 kts | 115° |
| 2026-05-07 16:47 | 52.49350 | 4.16270 | 23087 ft | 332 kts | 116° |
| 2026-05-07 16:47 | 52.48376 | 4.19746 | 23081 ft | 345 kts | 117° |
| 2026-05-07 16:47 | 52.47349 | 4.23461 | 23084 ft | 369 kts | 116° |
| 2026-05-07 16:47 | 52.46285 | 4.27420 | 23098 ft | 390 kts | 115° |
| 2026-05-07 16:48 | 52.45164 | 4.31587 | 23098 ft | 407 kts | 116° |
| 2026-05-07 16:48 | 52.43988 | 4.35878 | 23096 ft | 420 kts | 116° |
| 2026-05-07 16:48 | 52.42774 | 4.40295 | 23094 ft | 430 kts | 116° |
| 2026-05-07 16:48 | 52.41557 | 4.44746 | 23090 ft | 437 kts | 115° |
| 2026-05-07 16:49 | 52.40306 | 4.49322 | 23090 ft | 443 kts | 115° |
| 2026-05-07 16:49 | 52.39035 | 4.53942 | 23089 ft | 447 kts | 116° |
| 2026-05-07 16:49 | 52.37758 | 4.58566 | 23084 ft | 450 kts | 116° |
| 2026-05-07 16:49 | 52.36455 | 4.63285 | 23088 ft | 453 kts | 116° |
| 2026-05-07 16:50 | 52.35160 | 4.67975 | 23092 ft | 454 kts | 116° |
| 2026-05-07 16:50 | 52.33740 | 4.72540 | 23082 ft | 454 kts | 123° |
| 2026-05-07 16:50 | 52.31848 | 4.76685 | 23105 ft | 452 kts | 133° |
| 2026-05-07 16:50 | 52.29593 | 4.80255 | 23083 ft | 452 kts | 140° |
| 2026-05-07 16:51 | 52.27209 | 4.83608 | 23089 ft | 451 kts | 143° |
| 2026-05-07 16:51 | 52.24580 | 4.86358 | 23074 ft | 449 kts | 154° |
| 2026-05-07 16:51 | 52.21748 | 4.88326 | 23070 ft | 447 kts | 163° |
| 2026-05-07 16:51 | 52.18811 | 4.89508 | 23051 ft | 418 kts | 171° |
| 2026-05-07 16:52 | 52.16031 | 4.90486 | 22480 ft | 401 kts | 172° |
| 2026-05-07 16:52 | 52.13303 | 4.90593 | 21839 ft | 386 kts | 189° |
| 2026-05-07 16:52 | 52.10784 | 4.89356 | 21210 ft | 374 kts | 208° |
| 2026-05-07 16:52 | 52.08586 | 4.87188 | 20650 ft | 365 kts | 212° |
| 2026-05-07 16:53 | 52.06292 | 4.85386 | 19729 ft | 368 kts | 211° |
| 2026-05-07 16:53 | 52.04326 | 4.82775 | 18818 ft | 368 kts | 231° |
| 2026-05-07 16:53 | 52.03025 | 4.79218 | 17856 ft | 367 kts | 250° |
| 2026-05-07 16:53 | 52.02564 | 4.75186 | 16870 ft | 366 kts | 270° |
| 2026-05-07 16:54 | 52.02956 | 4.71185 | 15923 ft | 364 kts | 288° |
| 2026-05-07 16:54 | 52.04156 | 4.67535 | 14982 ft | 364 kts | 307° |
| 2026-05-07 16:54 | 52.06022 | 4.64851 | 14089 ft | 363 kts | 327° |
| 2026-05-07 16:54 | 52.08319 | 4.63406 | 13116 ft | 350 kts | 348° |
| 2026-05-07 16:55 | 52.10705 | 4.63399 | 12145 ft | 341 kts | 9° |
| 2026-05-07 16:55 | 52.12875 | 4.64787 | 11197 ft | 334 kts | 31° |
| 2026-05-07 16:55 | 52.14543 | 4.67361 | 10272 ft | 329 kts | 53° |
| 2026-05-07 16:55 | 52.15528 | 4.70672 | 9318 ft | 324 kts | 68° |
| 2026-05-07 16:56 | 52.16473 | 4.73949 | 8356 ft | 315 kts | 59° |
| 2026-05-07 16:56 | 52.17636 | 4.76926 | 7425 ft | 308 kts | 56° |
| 2026-05-07 16:56 | 52.20400 | 4.81920 | 5886 ft | 287 kts | 42° |
| 2026-05-07 16:57 | 52.21518 | 4.84471 | 5173 ft | 280 kts | 66° |
| 2026-05-07 16:57 | 52.21832 | 4.87563 | 4453 ft | 278 kts | 91° |
| 2026-05-07 16:57 | 52.21282 | 4.90549 | 3756 ft | 278 kts | 116° |
| 2026-05-07 16:57 | 52.19962 | 4.92848 | 3119 ft | 281 kts | 144° |
| 2026-05-07 16:58 | 52.18181 | 4.93803 | 3069 ft | 263 kts | 173° |
| 2026-05-07 16:58 | 52.16443 | 4.93413 | 3060 ft | 246 kts | 199° |
| 2026-05-07 16:58 | 52.14913 | 4.92346 | 3059 ft | 231 kts | 203° |
| 2026-05-07 16:58 | 52.13722 | 4.90759 | 3045 ft | 218 kts | 237° |
| 2026-05-07 16:59 | 52.13121 | 4.88544 | 2884 ft | 213 kts | 259° |
| 2026-05-07 16:59 | 52.13146 | 4.86178 | 2655 ft | 209 kts | 284° |
| 2026-05-07 16:59 | 52.13262 | 4.83808 | 2451 ft | 211 kts | 274° |
| 2026-05-07 16:59 | 52.13385 | 4.81475 | 2278 ft | 206 kts | 289° |
| 2026-05-07 17:00 | 52.13977 | 4.79470 | 2192 ft | 187 kts | 310° |
| 2026-05-07 17:00 | 52.14831 | 4.78010 | 2190 ft | 171 kts | 328° |
| 2026-05-07 17:00 | 52.15835 | 4.77096 | 2191 ft | 165 kts | 344° |
| 2026-05-07 17:00 | 52.16949 | 4.76664 | 2200 ft | 167 kts | 355° |
| 2026-05-07 17:01 | 52.18112 | 4.76352 | 2194 ft | 169 kts | 6° |
| 2026-05-07 17:01 | 52.19266 | 4.76732 | 2133 ft | 173 kts | 12° |
| 2026-05-07 17:01 | 52.20429 | 4.76906 | 1928 ft | 164 kts | 7° |
| 2026-05-07 17:01 | 52.21550 | 4.77036 | 1701 ft | 160 kts | 7° |
| 2026-05-07 17:02 | 52.22577 | 4.77136 | 1484 ft | 140 kts | 6° |
| 2026-05-07 17:02 | 52.23496 | 4.77215 | 1292 ft | 123 kts | 9° |
| 2026-05-07 17:02 | 52.24311 | 4.77294 | 1110 ft | 116 kts | 8° |
| 2026-05-07 17:02 | 52.25092 | 4.77358 | 891 ft | 109 kts | 7° |
| 2026-05-07 17:03 | 52.25824 | 4.77436 | 701 ft | 105 kts | 7° |
| 2026-05-07 17:03 | 52.26565 | 4.77509 | 519 ft | 110 kts | 7° |
| 2026-05-07 17:03 | 52.27331 | 4.77574 | 386 ft | 110 kts | 6° |
| 2026-05-07 17:03 | 52.28086 | 4.77627 | 291 ft | 108 kts | 4° |
| 2026-05-07 17:04 | 52.28851 | 4.77678 | 220 ft | 112 kts | 7° |
| 2026-05-07 17:04 | 52.29608 | 4.77897 | 158 ft | 113 kts | 22° |
| 2026-05-07 17:04 | 52.30236 | 4.78620 | -7 ft | 105 kts | 44° |
| 2026-05-07 17:04 | 52.30685 | 4.79279 | -10 ft | 69 kts | 41° |
| 2026-05-07 17:05 | 52.31014 | 4.79746 | -14 ft | 47 kts | 42° |
| 2026-05-07 17:05 | 52.31174 | 4.79983 | -11 ft | 12 kts | 70° |
| 2026-05-07 17:05 | 52.31131 | 4.80103 | -12 ft | 15 kts | 130° |
| 2026-05-07 17:05 | 52.31057 | 4.80241 | -12 ft | 18 kts | 136° |
| 2026-05-07 17:06 | 52.31064 | 4.80337 | -12 ft | 9 kts | 40° |
| 2026-05-07 17:06 | 52.31109 | 4.80343 | -12 ft | 8 kts | 313° |
| 2026-05-07 17:06 | 52.31116 | 4.80332 | -12 ft | 0 kts | 314° |